createdAt,value
2022-12-31T00:00:39.176Z,100057.88
2022-12-31T00:03:09.214Z,100060.50
2022-12-31T00:05:37.285Z,100057.88
2022-12-31T00:08:06.230Z,100064.00
2022-12-31T00:10:40.106Z,100076.28
2022-12-31T00:13:09.297Z,100082.41
2022-12-31T00:15:37.770Z,100066.56
2022-12-31T00:18:07.025Z,100075.38
2022-12-31T00:20:39.268Z,100070.97
2022-12-31T00:23:09.999Z,100070.09
2022-12-31T00:25:37.724Z,100074.47
2022-12-31T00:28:05.881Z,100085.88
2022-12-31T00:30:35.194Z,100069.19
2022-12-31T00:33:02.597Z,100085.84
2022-12-31T00:35:29.855Z,100070.03
2022-12-31T00:37:57.303Z,100071.78
2022-12-31T00:40:24.675Z,100072.66
2022-12-31T00:42:52.008Z,100070.91
2022-12-31T00:45:19.545Z,100084.06
2022-12-31T00:47:46.927Z,100084.91
2022-12-31T00:50:14.144Z,100086.63
2022-12-31T00:52:41.711Z,100091.03
2022-12-31T00:55:09.222Z,100093.66
2022-12-31T00:57:36.502Z,100089.28
2022-12-31T01:00:07.364Z,100094.53
2022-12-31T01:02:35.308Z,100096.31
2022-12-31T01:05:02.974Z,100091.03
2022-12-31T01:07:30.191Z,100090.19
2022-12-31T01:09:57.480Z,100101.59
2022-12-31T01:12:25.548Z,100102.44
2022-12-31T01:14:52.902Z,100098.09
2022-12-31T01:17:20.262Z,100103.34
2022-12-31T01:19:47.713Z,100105.13
2022-12-31T01:22:15.249Z,100098.09
2022-12-31T01:24:42.586Z,100101.63
2022-12-31T01:27:09.974Z,100099.88
2022-12-31T01:29:37.248Z,100100.75
2022-12-31T01:32:05.465Z,100109.56
2022-12-31T01:34:32.824Z,100104.28
2022-12-31T01:37:00.026Z,100100.78
2022-12-31T01:39:27.341Z,100103.44
2022-12-31T01:41:54.590Z,100108.72
2022-12-31T01:44:25.057Z,100108.72
2022-12-31T01:46:56.496Z,100118.38
2022-12-31T01:49:42.184Z,100124.53
2022-12-31T01:52:23.261Z,100137.69
2022-12-31T01:55:04.993Z,100133.31
2022-12-31T01:57:32.730Z,100129.78
2022-12-31T02:00:01.885Z,100131.56
2022-12-31T02:02:32.365Z,100127.19
2022-12-31T02:05:03.597Z,100126.31
2022-12-31T02:07:32.742Z,100131.59
2022-12-31T02:10:00.282Z,100131.59
2022-12-31T02:12:27.568Z,100129.84
2022-12-31T02:14:55.956Z,100124.59
2022-12-31T02:17:35.482Z,100131.63
2022-12-31T02:20:48.295Z,100135.16
2022-12-31T02:23:45.407Z,100136.03
2022-12-31T02:26:27.509Z,100133.41
2022-12-31T02:29:32.172Z,100119.38
2022-12-31T02:32:13.804Z,100126.41
2022-12-31T02:34:52.711Z,100101.84
2022-12-31T02:37:23.050Z,100113.25
2022-12-31T02:39:51.205Z,100107.13
2022-12-31T02:42:18.776Z,100111.53
2022-12-31T02:44:47.572Z,100116.75
2022-12-31T02:47:30.630Z,100113.25
2022-12-31T02:50:16.791Z,100107.13
2022-12-31T02:53:05.701Z,100103.63
2022-12-31T02:55:45.081Z,100093.94
2022-12-31T02:59:01.373Z,100102.69
2022-12-31T03:01:54.678Z,100119.41
2022-12-31T03:04:32.718Z,100113.28
2022-12-31T03:07:08.795Z,100108.00
2022-12-31T03:09:36.620Z,100099.25
2022-12-31T03:12:25.243Z,100115.06
2022-12-31T03:14:52.596Z,100104.53
2022-12-31T03:17:20.573Z,100107.16
2022-12-31T03:20:06.365Z,100100.16
2022-12-31T03:22:36.479Z,100094.91
2022-12-31T03:25:35.332Z,100088.78
2022-12-31T03:28:10.024Z,100112.47
2022-12-31T03:30:39.463Z,100107.22
2022-12-31T03:33:07.711Z,100118.59
2022-12-31T03:35:37.370Z,100108.97
2022-12-31T03:38:05.549Z,100099.31
2022-12-31T03:40:37.061Z,100103.72
2022-12-31T03:43:04.733Z,100091.41
2022-12-31T03:45:32.252Z,100095.81
2022-12-31T03:47:59.617Z,100093.19
2022-12-31T03:50:27.580Z,100081.78
2022-12-31T03:52:54.938Z,100099.31
2022-12-31T03:55:22.535Z,100102.00
2022-12-31T03:57:50.096Z,100101.09
2022-12-31T04:00:19.943Z,100100.22
2022-12-31T04:02:48.679Z,100106.34
2022-12-31T04:05:17.418Z,100104.63
2022-12-31T04:07:46.600Z,100098.50
2022-12-31T04:10:16.167Z,100093.25
2022-12-31T04:12:44.489Z,100108.19
2022-12-31T04:15:16.923Z,100105.56
2022-12-31T04:17:44.281Z,100111.72
2022-12-31T04:20:13.213Z,100110.84
2022-12-31T04:22:40.518Z,100108.22
2022-12-31T04:25:13.049Z,100112.63
2022-12-31T04:27:41.506Z,100125.78
2022-12-31T04:30:10.456Z,100133.69
2022-12-31T04:32:37.720Z,100126.69
2022-12-31T04:35:05.751Z,100134.59
2022-12-31T04:37:33.212Z,100138.94
2022-12-31T04:40:05.466Z,100142.47
2022-12-31T04:42:35.234Z,100138.09
2022-12-31T04:45:02.621Z,100130.22
2022-12-31T04:47:30.227Z,100127.59
2022-12-31T04:49:57.584Z,100117.94
2022-12-31T04:52:24.915Z,100110.91
2022-12-31T04:54:52.154Z,100111.81
2022-12-31T04:57:19.567Z,100118.84
2022-12-31T04:59:46.916Z,100109.19
2022-12-31T05:02:15.530Z,100109.19
2022-12-31T05:04:44.006Z,100115.34
2022-12-31T05:07:11.760Z,100128.50
2022-12-31T05:09:38.909Z,100138.13
2022-12-31T05:12:06.425Z,100134.63
2022-12-31T05:14:33.741Z,100132.00
2022-12-31T05:17:01.339Z,100136.41
2022-12-31T05:19:28.928Z,100134.63
2022-12-31T05:22:14.832Z,100137.25
2022-12-31T05:24:42.097Z,100135.53
2022-12-31T05:27:10.685Z,100129.41
2022-12-31T05:29:37.921Z,100119.75
2022-12-31T05:32:05.450Z,100125.00
2022-12-31T05:34:32.698Z,100116.25
2022-12-31T05:37:00.131Z,100110.13
2022-12-31T05:39:27.398Z,100102.25
2022-12-31T05:41:54.629Z,100095.25
2022-12-31T05:44:21.899Z,100110.13
2022-12-31T05:46:49.313Z,100114.53
2022-12-31T05:49:16.860Z,100102.28
2022-12-31T05:51:44.383Z,100113.66
2022-12-31T05:54:11.671Z,100115.44
2022-12-31T05:56:38.964Z,100128.56
2022-12-31T05:59:06.380Z,100124.22
2022-12-31T06:01:34.410Z,100130.34
2022-12-31T06:04:01.805Z,100139.09
2022-12-31T06:06:29.183Z,100158.38
2022-12-31T06:08:56.531Z,100144.34
2022-12-31T06:11:23.861Z,100140.88
2022-12-31T06:13:51.228Z,100155.75
2022-12-31T06:16:18.506Z,100161.00
2022-12-31T06:18:50.908Z,100158.38
2022-12-31T06:21:19.619Z,100176.78
2022-12-31T06:23:47.710Z,100179.41
2022-12-31T06:26:16.139Z,100181.19
2022-12-31T06:28:43.496Z,100174.16
2022-12-31T06:31:13.823Z,100172.44
2022-12-31T06:33:43.032Z,100182.94
2022-12-31T06:36:13.655Z,100182.09
2022-12-31T06:38:42.092Z,100174.19
2022-12-31T06:41:14.355Z,100182.09
2022-12-31T06:43:43.219Z,100183.88
2022-12-31T06:46:15.641Z,100176.00
2022-12-31T06:48:44.989Z,100176.88
2022-12-31T06:51:18.123Z,100174.25
2022-12-31T06:53:47.234Z,100174.28
2022-12-31T06:56:26.515Z,100172.53
2022-12-31T06:58:58.316Z,100171.63
2022-12-31T07:02:03.675Z,100180.41
2022-12-31T07:04:46.164Z,100169.91
2022-12-31T07:07:19.403Z,100154.13
2022-12-31T07:10:11.091Z,100156.75
2022-12-31T07:12:59.690Z,100145.34
2022-12-31T07:15:39.034Z,100146.25
2022-12-31T07:19:00.826Z,100150.63
2022-12-31T07:21:35.568Z,100169.00
2022-12-31T07:24:06.300Z,100184.78
2022-12-31T07:26:55.996Z,100174.28
2022-12-31T07:29:47.368Z,100156.75
2022-12-31T07:32:32.893Z,100165.50
2022-12-31T07:35:18.946Z,100177.78
2022-12-31T07:37:58.943Z,100175.16
2022-12-31T07:41:05.534Z,100190.94
2022-12-31T07:44:00.322Z,100186.56
2022-12-31T07:46:51.375Z,100171.66
2022-12-31T07:49:19.753Z,100177.78
2022-12-31T07:51:48.046Z,100174.28
2022-12-31T07:54:15.416Z,100169.00
2022-12-31T07:56:43.913Z,100171.63
2022-12-31T07:59:45.088Z,100189.19
2022-12-31T08:02:24.913Z,100197.94
2022-12-31T08:05:08.494Z,100197.91
2022-12-31T08:07:46.113Z,100187.41
2022-12-31T08:10:34.432Z,100183.88
2022-12-31T08:13:03.873Z,100175.13
2022-12-31T08:15:31.575Z,100179.50
2022-12-31T08:17:59.159Z,100194.41
2022-12-31T08:20:27.358Z,100158.47
2022-12-31T08:23:26.088Z,100161.94
2022-12-31T08:26:09.035Z,100154.06
2022-12-31T08:28:39.415Z,100144.44
2022-12-31T08:31:21.085Z,100140.91
2022-12-31T08:34:06.147Z,100148.81
2022-12-31T08:37:16.153Z,100154.94
2022-12-31T08:40:08.412Z,100150.56
2022-12-31T08:43:13.728Z,100145.31
2022-12-31T08:45:52.786Z,100147.94
2022-12-31T08:48:39.182Z,100147.06
2022-12-31T08:51:21.651Z,100139.16
2022-12-31T08:53:50.436Z,100133.91
2022-12-31T08:56:56.344Z,100144.41
2022-12-31T08:59:58.964Z,100144.38
2022-12-31T09:02:52.957Z,100135.63
2022-12-31T09:05:32.672Z,100143.50
2022-12-31T09:08:21.409Z,100136.47
2022-12-31T09:11:04.159Z,100132.97
2022-12-31T09:13:55.238Z,100144.31
2022-12-31T09:16:53.423Z,100156.63
2022-12-31T09:19:20.878Z,100146.06
2022-12-31T09:21:48.793Z,100165.34
2022-12-31T09:24:16.736Z,100160.94
2022-12-31T09:26:43.989Z,100148.66
2022-12-31T09:29:14.351Z,100144.22
2022-12-31T09:31:54.165Z,100149.44
2022-12-31T09:34:29.368Z,100136.22
2022-12-31T09:37:02.645Z,100145.78
2022-12-31T09:39:37.559Z,100129.94
2022-12-31T09:42:18.945Z,100139.59
2022-12-31T09:45:04.878Z,100144.78
2022-12-31T09:47:44.162Z,100138.59
2022-12-31T09:50:30.061Z,100139.41
2022-12-31T09:53:25.445Z,100134.97
2022-12-31T09:55:58.188Z,100146.38
2022-12-31T09:58:55.726Z,100151.63
2022-12-31T10:01:32.018Z,100137.53
2022-12-31T10:04:28.595Z,100149.78
2022-12-31T10:07:32.432Z,100160.25
2022-12-31T10:10:09.329Z,100162.84
2022-12-31T10:12:52.460Z,100160.19
2022-12-31T10:15:48.786Z,100154.00
2022-12-31T10:18:40.898Z,100163.63
2022-12-31T10:21:46.959Z,100157.47
2022-12-31T10:24:14.173Z,100164.38
2022-12-31T10:26:53.421Z,100163.47
2022-12-31T10:29:25.329Z,100146.66
2022-12-31T10:32:12.563Z,100170.34
2022-12-31T10:34:42.776Z,100167.59
2022-12-31T10:37:44.200Z,100176.28
2022-12-31T10:40:38.627Z,100174.44
2022-12-31T10:43:50.629Z,100188.50
2022-12-31T10:46:46.664Z,100186.66
2022-12-31T10:49:32.213Z,100178.63
2022-12-31T10:52:27.537Z,100190.78
2022-12-31T10:54:57.634Z,100170.47
2022-12-31T10:57:43.696Z,100169.47
2022-12-31T11:00:34.081Z,100176.38
2022-12-31T11:03:34.342Z,100166.59
2022-12-31T11:06:39.446Z,100165.66
2022-12-31T11:09:44.287Z,100169.13
2022-12-31T11:12:32.583Z,100177.88
2022-12-31T11:15:21.673Z,100163.72
2022-12-31T11:18:10.414Z,100172.50
2022-12-31T11:20:58.454Z,100170.75
2022-12-31T11:23:38.831Z,100165.41
2022-12-31T11:26:27.576Z,100153.06
2022-12-31T11:28:59.715Z,100164.44
2022-12-31T11:31:50.662Z,100179.34
2022-12-31T11:34:23.843Z,100176.66
2022-12-31T11:37:17.603Z,100182.75
2022-12-31T11:39:46.975Z,100195.91
2022-12-31T11:42:32.482Z,100179.16
2022-12-31T11:45:12.817Z,100193.19
2022-12-31T11:50:48.908Z,100185.28
2022-12-31T11:53:57.587Z,100195.88
2022-12-31T11:56:31.403Z,100188.91
2022-12-31T11:58:58.935Z,100182.78
2022-12-31T12:01:33.687Z,100189.84
2022-12-31T12:04:03.365Z,100193.34
2022-12-31T12:06:32.672Z,100174.00
2022-12-31T12:09:11.008Z,100171.38
2022-12-31T12:11:39.909Z,100166.06
2022-12-31T12:14:30.075Z,100175.72
2022-12-31T12:17:04.375Z,100167.78
2022-12-31T12:19:33.989Z,100181.88
2022-12-31T12:22:19.677Z,100183.56
2022-12-31T12:25:01.965Z,100162.41
2022-12-31T12:27:32.208Z,100175.56
2022-12-31T12:30:28.396Z,100158.88
2022-12-31T12:32:59.073Z,100165.97
2022-12-31T12:35:28.711Z,100166.81
2022-12-31T12:38:08.244Z,100167.75
2022-12-31T12:40:35.867Z,100169.53
2022-12-31T12:43:04.727Z,100176.53
2022-12-31T12:45:51.805Z,100179.16
2022-12-31T12:48:44.840Z,100158.84
2022-12-31T12:51:30.797Z,100191.41
2022-12-31T12:54:17.267Z,100181.72
2022-12-31T12:57:02.770Z,100194.91
2022-12-31T12:59:52.790Z,100197.56
2022-12-31T13:02:42.667Z,100189.63
2022-12-31T13:05:31.365Z,100201.97
2022-12-31T13:08:19.057Z,100205.50
2022-12-31T13:11:16.222Z,100206.41
2022-12-31T13:14:05.308Z,100199.41
2022-12-31T13:16:32.717Z,100206.44
2022-12-31T13:19:37.515Z,100217.03
2022-12-31T13:22:50.399Z,100226.78
2022-12-31T13:25:58.921Z,100236.47
2022-12-31T13:28:26.841Z,100215.34
2022-12-31T13:31:06.472Z,100220.66
2022-12-31T13:34:06.449Z,100220.66
2022-12-31T13:36:40.517Z,100235.66
2022-12-31T13:39:15.449Z,100229.50
2022-12-31T13:41:52.434Z,100233.09
2022-12-31T13:44:22.598Z,100235.72
2022-12-31T13:47:02.714Z,100232.28
2022-12-31T13:49:42.167Z,100227.91
2022-12-31T13:52:27.680Z,100227.09
2022-12-31T13:55:04.473Z,100219.19
2022-12-31T13:57:34.751Z,100236.94
2022-12-31T14:00:07.369Z,100257.22
2022-12-31T14:02:47.549Z,100252.91
2022-12-31T14:05:24.293Z,100260.91
2022-12-31T14:07:57.864Z,100255.69
2022-12-31T14:10:46.154Z,100278.66
2022-12-31T14:13:22.752Z,100273.47
2022-12-31T14:16:08.613Z,100277.91
2022-12-31T14:18:42.417Z,100273.53
2022-12-31T14:21:31.923Z,100277.97
2022-12-31T14:24:43.309Z,100276.25
2022-12-31T14:27:27.116Z,100286.84
2022-12-31T14:30:03.866Z,100281.63
2022-12-31T14:32:58.231Z,100279.88
2022-12-31T14:35:34.816Z,100288.72
2022-12-31T14:38:17.902Z,100288.72
2022-12-31T14:40:57.052Z,100277.28
2022-12-31T14:43:58.404Z,100279.94
2022-12-31T14:46:49.002Z,100278.22
2022-12-31T14:49:37.772Z,100288.78
2022-12-31T14:52:09.614Z,100293.16
2022-12-31T14:54:38.410Z,100317.75
2022-12-31T14:57:18.111Z,100320.41
2022-12-31T14:59:57.712Z,100326.56
2022-12-31T15:02:28.649Z,100310.75
2022-12-31T15:05:05.456Z,100314.25
2022-12-31T15:07:49.185Z,100306.31
2022-12-31T15:10:27.167Z,100315.97
2022-12-31T15:13:16.048Z,100320.38
2022-12-31T15:15:49.269Z,100308.94
2022-12-31T15:18:41.202Z,100317.72
2022-12-31T15:21:49.992Z,100304.56
2022-12-31T15:24:25.835Z,100315.09
2022-12-31T15:26:56.203Z,100324.78
2022-12-31T15:29:28.138Z,100325.66
2022-12-31T15:31:59.084Z,100331.84
2022-12-31T15:34:31.059Z,100330.09
2022-12-31T15:37:00.655Z,100337.16
2022-12-31T15:39:39.400Z,100335.44
2022-12-31T15:42:37.691Z,100336.38
2022-12-31T15:45:11.883Z,100348.72
2022-12-31T15:47:47.031Z,100346.13
2022-12-31T15:50:20.193Z,100347.00
2022-12-31T15:52:54.130Z,100347.94
2022-12-31T15:55:34.060Z,100358.53
2022-12-31T15:58:11.042Z,100356.75
2022-12-31T16:01:03.571Z,100354.13
2022-12-31T16:03:32.223Z,100365.56
2022-12-31T16:06:08.751Z,100364.69
2022-12-31T16:08:37.958Z,100371.72
2022-12-31T16:11:07.585Z,100373.50
2022-12-31T16:13:55.690Z,100370.00
2022-12-31T16:16:26.181Z,100367.34
2022-12-31T16:18:54.292Z,100358.56
2022-12-31T16:21:26.345Z,100344.50
2022-12-31T16:23:57.294Z,100348.84
2022-12-31T16:26:30.262Z,100340.94
2022-12-31T16:29:04.263Z,100333.88
2022-12-31T16:31:31.979Z,100337.38
2022-12-31T16:34:12.716Z,100329.41
2022-12-31T16:36:40.492Z,100331.16
2022-12-31T16:39:27.150Z,100336.38
2022-12-31T16:42:25.749Z,100335.44
2022-12-31T16:44:55.524Z,100314.31
2022-12-31T16:47:36.503Z,100304.63
2022-12-31T16:50:21.751Z,100315.13
2022-12-31T16:52:51.793Z,100303.69
2022-12-31T16:55:23.718Z,100317.75
2022-12-31T16:57:55.789Z,100308.03
2022-12-31T17:00:25.132Z,100313.31
2022-12-31T17:03:14.360Z,100297.41
2022-12-31T17:06:19.480Z,100312.38
2022-12-31T17:08:55.782Z,100323.78
2022-12-31T17:11:36.285Z,100308.81
2022-12-31T17:14:07.063Z,100302.69
2022-12-31T17:16:39.314Z,100309.72
2022-12-31T17:19:07.069Z,100305.31
2022-12-31T17:21:34.533Z,100299.19
2022-12-31T17:24:04.613Z,100306.19
2022-12-31T17:26:34.711Z,100311.44
2022-12-31T17:29:05.286Z,100300.03
2022-12-31T17:31:32.606Z,100306.16
2022-12-31T17:34:15.228Z,100312.31
2022-12-31T17:37:12.907Z,100295.63
2022-12-31T17:39:45.486Z,100304.44
2022-12-31T17:42:15.735Z,100312.38
2022-12-31T17:44:44.896Z,100304.44
2022-12-31T17:47:16.215Z,100314.09
2022-12-31T17:49:45.889Z,100304.38
2022-12-31T17:52:15.131Z,100299.94
2022-12-31T17:54:42.622Z,100295.50
2022-12-31T17:57:22.852Z,100282.31
2022-12-31T17:59:50.347Z,100287.59
2022-12-31T18:02:17.827Z,100284.97
2022-12-31T18:04:46.009Z,100284.97
2022-12-31T18:07:13.422Z,100284.06
2022-12-31T18:09:40.722Z,100278.78
2022-12-31T18:12:08.402Z,100281.44
2022-12-31T18:14:35.626Z,100294.63
2022-12-31T18:17:02.956Z,100301.66
2022-12-31T18:22:17.882Z,100314.88
2022-12-31T18:24:45.321Z,100317.50
2022-12-31T18:27:17.075Z,100328.97
2022-12-31T18:29:45.494Z,100305.19
2022-12-31T18:32:19.153Z,100315.75
2022-12-31T18:34:46.561Z,100306.97
2022-12-31T18:37:21.267Z,100298.19
2022-12-31T18:39:48.974Z,100302.56
2022-12-31T18:42:17.865Z,100300.78
2022-12-31T18:44:46.168Z,100302.56
2022-12-31T18:47:16.251Z,100300.81
2022-12-31T18:49:45.046Z,100294.63
2022-12-31T18:52:14.320Z,100292.00
2022-12-31T18:54:43.320Z,100294.66
2022-12-31T18:57:17.721Z,100283.19
2022-12-31T18:59:44.955Z,100284.13
2022-12-31T19:02:18.065Z,100279.69
2022-12-31T19:04:46.553Z,100284.97
2022-12-31T19:07:13.826Z,100288.53
2022-12-31T19:09:45.953Z,100291.16
2022-12-31T19:12:14.976Z,100280.63
2022-12-31T19:14:42.462Z,100271.84
2022-12-31T19:19:36.347Z,100268.34
2022-12-31T19:22:03.615Z,100265.72
2022-12-31T19:24:32.362Z,100263.09
2022-12-31T19:27:02.002Z,100268.34
2022-12-31T19:29:29.492Z,100271.00
2022-12-31T19:31:58.283Z,100268.34
2022-12-31T19:34:27.630Z,100273.66
2022-12-31T19:36:54.881Z,100279.78
2022-12-31T19:39:22.184Z,100285.97
2022-12-31T19:41:56.484Z,100276.28
2022-12-31T19:44:26.305Z,100258.66
2022-12-31T19:46:53.635Z,100258.66
2022-12-31T19:49:21.011Z,100269.19
2022-12-31T19:51:48.317Z,100264.75
2022-12-31T19:54:16.035Z,100262.97
2022-12-31T19:56:43.284Z,100266.50
2022-12-31T19:59:11.003Z,100270.84
2022-12-31T20:01:38.467Z,100264.69
2022-12-31T20:04:06.177Z,100263.75
2022-12-31T20:06:33.479Z,100264.59
2022-12-31T20:09:03.775Z,100257.56
2022-12-31T20:11:31.565Z,100254.81
2022-12-31T20:13:59.248Z,100266.22
2022-12-31T20:16:27.046Z,100251.22
2022-12-31T20:18:54.867Z,100250.34
2022-12-31T20:21:25.874Z,100256.47
2022-12-31T20:24:01.793Z,100261.69
2022-12-31T20:26:30.480Z,100266.97
2022-12-31T20:28:57.733Z,100274.03
2022-12-31T20:31:26.077Z,100268.72
2022-12-31T20:33:54.563Z,100263.38
2022-12-31T20:36:22.642Z,100277.44
2022-12-31T20:38:51.463Z,100265.13
2022-12-31T20:41:21.377Z,100264.22
2022-12-31T20:43:49.101Z,100263.34
2022-12-31T20:46:19.715Z,100279.13
2022-12-31T20:48:50.463Z,100283.50
2022-12-31T20:51:18.762Z,100280.88
2022-12-31T20:53:48.343Z,100283.47
2022-12-31T20:56:17.139Z,100289.66
2022-12-31T20:58:44.935Z,100292.22
2022-12-31T21:01:12.975Z,100300.13
2022-12-31T21:06:30.396Z,100292.13
2022-12-31T21:09:00.039Z,100287.69
2022-12-31T21:11:45.924Z,100299.16
2022-12-31T21:14:44.406Z,100280.66
2022-12-31T21:17:12.213Z,100289.44
2022-12-31T21:19:39.593Z,100275.34
2022-12-31T21:22:08.926Z,100284.06
2022-12-31T21:24:36.203Z,100293.66
2022-12-31T21:27:03.604Z,100296.22
2022-12-31T21:29:34.536Z,100302.41
2022-12-31T21:32:04.209Z,100301.56
2022-12-31T21:34:31.528Z,100307.63
2022-12-31T21:36:59.052Z,100295.25
2022-12-31T21:39:26.468Z,100314.66
2022-12-31T21:41:53.805Z,100319.03
2022-12-31T21:44:26.085Z,100316.41
2022-12-31T21:47:35.647Z,100318.16
2022-12-31T21:50:03.956Z,100313.75
2022-12-31T21:52:33.531Z,100315.56
2022-12-31T21:55:21.739Z,100321.75
2022-12-31T22:00:56.755Z,100308.66
2022-12-31T22:03:27.942Z,100319.25
2022-12-31T22:06:02.944Z,100328.03
2022-12-31T22:08:32.944Z,100319.25
2022-12-31T22:11:01.583Z,100332.44
2022-12-31T22:13:28.995Z,100331.53
2022-12-31T22:16:04.180Z,100329.81
2022-12-31T22:18:38.643Z,100336.88
2022-12-31T22:21:18.148Z,100331.63
2022-12-31T22:23:52.320Z,100342.22
2022-12-31T22:26:23.525Z,100336.06
2022-12-31T22:28:51.904Z,100342.22
2022-12-31T22:31:22.794Z,100351.06
2022-12-31T22:33:50.809Z,100356.34
2022-12-31T22:36:20.714Z,100348.41
2022-12-31T22:38:49.663Z,100358.06
2022-12-31T22:41:19.513Z,100354.53
2022-12-31T22:43:49.990Z,100367.69
2022-12-31T22:46:21.949Z,100366.75
2022-12-31T22:48:50.094Z,100367.66
2022-12-31T22:51:18.283Z,100358.88
2022-12-31T22:53:46.110Z,100358.88
2022-12-31T22:56:16.181Z,100370.34
2022-12-31T22:58:43.775Z,100367.66
2022-12-31T23:01:20.403Z,100368.53
2022-12-31T23:03:54.274Z,100365.88
2022-12-31T23:06:23.595Z,100366.72
2022-12-31T23:09:11.362Z,100379.94
2022-12-31T23:11:39.544Z,100377.28
2022-12-31T23:14:26.609Z,100376.38
2022-12-31T23:17:30.253Z,100380.81
2022-12-31T23:20:22.804Z,100370.22
2022-12-31T23:23:08.998Z,100382.59
2022-12-31T23:25:47.994Z,100368.53
2022-12-31T23:28:18.442Z,100372.97
2022-12-31T23:30:47.577Z,100376.53
2022-12-31T23:33:18.152Z,100370.34
2022-12-31T23:35:47.124Z,100373.94
2022-12-31T23:38:17.556Z,100373.94
2022-12-31T23:40:45.658Z,100375.69
2022-12-31T23:43:20.797Z,100372.13
2022-12-31T23:45:50.420Z,100374.75
2022-12-31T23:48:20.345Z,100372.09
2022-12-31T23:50:53.519Z,100375.59
2022-12-31T23:53:25.083Z,100381.75
2022-12-31T23:55:53.135Z,100377.31
2022-12-31T23:58:21.361Z,100380.81
